createdAt,value
2023-03-20T00:02:00.478Z,74.80
2023-03-20T00:04:27.488Z,74.40
2023-03-20T00:06:54.309Z,73.80
2023-03-20T00:09:21.147Z,73.20
2023-03-20T00:11:50.441Z,71.10
2023-03-20T00:14:20.020Z,70.50
2023-03-20T00:16:49.068Z,70.80
2023-03-20T00:19:23.468Z,70.60
2023-03-20T00:21:51.605Z,73.70
2023-03-20T00:26:47.390Z,70.80
2023-03-20T00:29:31.253Z,70.70
2023-03-20T00:34:29.685Z,70.60
2023-03-20T00:41:57.965Z,75.10
2023-03-20T00:44:26.483Z,75.10
2023-03-20T00:47:00.614Z,75.30
2023-03-20T00:49:33.169Z,74.30
2023-03-20T00:52:01.466Z,75.60
2023-03-20T00:54:29.316Z,75.60
2023-03-20T00:57:01.140Z,79.50
2023-03-20T00:59:34.255Z,75.80
2023-03-20T01:02:02.754Z,76.70
2023-03-20T01:04:36.346Z,77.20
2023-03-20T01:09:30.667Z,78.30
2023-03-20T01:11:59.845Z,77.30
2023-03-20T01:16:54.554Z,77.80
2023-03-20T01:21:49.259Z,80.70
2023-03-20T01:26:45.984Z,79.60
2023-03-20T01:29:30.587Z,78.10
2023-03-20T01:31:57.430Z,79.80
2023-03-20T01:34:24.326Z,81.10
2023-03-20T01:36:54.268Z,81.10
2023-03-20T01:39:24.407Z,80.10
2023-03-20T01:41:53.031Z,80.10
2023-03-20T01:44:27.335Z,81.00
2023-03-20T01:46:55.474Z,79.60
2023-03-20T01:51:51.588Z,78.10
2023-03-20T01:54:29.570Z,80.80
2023-03-20T01:57:11.344Z,77.40
2023-03-20T01:59:51.893Z,77.30
2023-03-20T02:02:25.083Z,77.00
2023-03-20T02:04:55.944Z,77.50
2023-03-20T02:07:24.365Z,78.50
2023-03-20T02:09:51.901Z,80.60
2023-03-20T02:12:20.921Z,77.60
2023-03-20T02:14:48.439Z,81.00
2023-03-20T02:17:15.726Z,80.50
2023-03-20T02:20:10.659Z,81.00
2023-03-20T02:23:02.120Z,78.10
2023-03-20T02:25:59.632Z,78.30
2023-03-20T02:28:41.345Z,79.20
2023-03-20T02:31:23.073Z,81.00
2023-03-20T02:34:05.186Z,80.50
2023-03-20T02:37:16.793Z,80.70
2023-03-20T02:40:05.878Z,80.20
2023-03-20T02:42:47.685Z,80.80
2023-03-20T02:48:04.373Z,76.40
2023-03-20T02:50:48.951Z,80.00
2023-03-20T02:53:39.979Z,76.30
2023-03-20T02:58:46.684Z,80.30
2023-03-20T03:01:41.687Z,79.00
2023-03-20T03:04:17.753Z,84.80
2023-03-20T03:06:49.289Z,81.50
2023-03-20T03:09:38.335Z,86.00
2023-03-20T03:12:21.430Z,85.80
2023-03-20T03:15:04.175Z,82.20
2023-03-20T03:17:36.504Z,86.40
2023-03-20T03:20:09.734Z,85.90
2023-03-20T03:22:36.580Z,83.00
2023-03-20T03:25:03.719Z,86.30
2023-03-20T03:27:47.809Z,82.90
2023-03-20T03:33:17.461Z,82.90
2023-03-20T03:35:45.594Z,86.50
2023-03-20T03:38:21.362Z,86.90
2023-03-20T03:41:17.518Z,84.50
2023-03-20T03:44:07.380Z,87.10
2023-03-20T03:49:05.497Z,84.40
2023-03-20T03:51:35.530Z,84.40
2023-03-20T03:54:13.140Z,84.30
2023-03-20T03:56:42.892Z,87.80
2023-03-20T03:59:18.174Z,84.00
2023-03-20T04:01:47.723Z,83.80
2023-03-20T04:04:16.871Z,87.90
2023-03-20T04:06:43.784Z,87.60
2023-03-20T04:09:10.735Z,85.30
2023-03-20T04:11:37.732Z,88.30
2023-03-20T04:14:04.573Z,87.30
2023-03-20T04:16:31.483Z,88.40
2023-03-20T04:21:25.908Z,89.00
2023-03-20T04:23:52.760Z,88.50
2023-03-20T04:26:19.668Z,88.80
2023-03-20T04:28:46.580Z,88.80
2023-03-20T04:33:42.092Z,89.80
2023-03-20T04:36:10.314Z,86.50
2023-03-20T04:38:37.250Z,90.10
2023-03-20T04:41:05.042Z,90.10
2023-03-20T04:48:28.047Z,90.20
2023-03-20T04:50:55.021Z,90.20
2023-03-20T04:58:17.961Z,88.20
2023-03-20T05:05:39.951Z,88.30
2023-03-20T05:08:07.089Z,87.70
2023-03-20T05:17:56.099Z,89.40
2023-03-20T05:22:51.297Z,85.20
2023-03-20T05:25:18.372Z,87.90
2023-03-20T05:27:46.275Z,85.40
2023-03-20T05:30:14.490Z,85.00
2023-03-20T05:37:39.522Z,85.50
2023-03-20T05:40:07.408Z,84.90
2023-03-20T05:49:56.169Z,85.90
2023-03-20T05:52:23.735Z,85.60
2023-03-20T05:57:18.124Z,84.80
2023-03-20T05:59:45.617Z,86.30
2023-03-20T06:04:40.002Z,86.20
2023-03-20T06:12:01.853Z,82.60
2023-03-20T06:21:51.750Z,80.90
2023-03-20T06:29:13.246Z,77.60
2023-03-20T06:31:40.403Z,77.40
2023-03-20T06:34:07.251Z,77.50
2023-03-20T06:41:34.549Z,72.70
2023-03-20T06:48:56.763Z,63.10
2023-03-20T06:56:18.402Z,62.20
2023-03-20T06:58:45.370Z,63.20
2023-03-20T07:01:13.824Z,65.20
2023-03-20T07:03:41.326Z,67.50
2023-03-20T07:06:09.702Z,64.30
2023-03-20T07:16:04.801Z,66.90
2023-03-20T07:18:32.327Z,69.30
2023-03-20T07:21:03.713Z,68.20
2023-03-20T07:25:59.460Z,66.50
2023-03-20T07:30:55.730Z,61.80
2023-03-20T07:33:22.612Z,60.90
2023-03-20T07:35:55.674Z,59.60
2023-03-20T07:38:22.949Z,60.00
2023-03-20T07:40:50.230Z,61.40
2023-03-20T07:45:44.970Z,57.80
2023-03-20T07:53:06.358Z,58.20
2023-03-20T07:55:33.205Z,60.30
2023-03-20T08:05:24.773Z,59.70
2023-03-20T08:10:19.487Z,59.70
2023-03-20T08:12:46.968Z,59.30
2023-03-20T08:15:14.125Z,58.30
2023-03-20T08:17:45.486Z,58.90
2023-03-20T08:20:13.455Z,58.40
2023-03-20T08:22:41.203Z,59.60
2023-03-20T08:25:08.878Z,59.00
2023-03-20T08:27:37.054Z,57.80
2023-03-20T08:30:04.861Z,59.10
2023-03-20T08:32:31.671Z,60.00
2023-03-20T08:37:25.740Z,58.90
2023-03-20T08:42:19.857Z,59.20
2023-03-20T08:47:15.049Z,58.10
2023-03-20T08:49:42.267Z,56.80
2023-03-20T08:57:03.811Z,53.20
2023-03-20T08:59:31.415Z,50.60
2023-03-20T09:01:58.462Z,51.10
2023-03-20T09:04:25.899Z,52.20
2023-03-20T09:06:52.864Z,48.50
2023-03-20T09:14:16.175Z,48.30
2023-03-20T09:16:43.056Z,48.00
2023-03-20T09:19:10.023Z,48.50
2023-03-20T09:21:37.045Z,48.10
2023-03-20T09:24:04.041Z,43.00
2023-03-20T09:33:53.734Z,43.20
2023-03-20T09:36:20.851Z,43.50
2023-03-20T09:41:23.190Z,42.50
2023-03-20T09:44:08.325Z,41.10
2023-03-20T09:46:49.364Z,41.20
2023-03-20T09:49:19.352Z,43.60
2023-03-20T09:51:56.003Z,44.00
2023-03-20T09:54:52.618Z,43.70
2023-03-20T09:57:32.469Z,44.50
2023-03-20T10:00:03.795Z,43.90
2023-03-20T10:02:53.266Z,45.10
2023-03-20T10:05:27.899Z,38.60
2023-03-20T10:08:01.846Z,37.80
2023-03-20T10:10:58.029Z,35.90
2023-03-20T10:13:54.002Z,34.90
2023-03-20T10:16:23.902Z,34.90
2023-03-20T10:19:12.383Z,35.40
2023-03-20T10:21:51.252Z,36.40
2023-03-20T10:24:39.706Z,35.20
2023-03-20T10:27:26.162Z,33.30
2023-03-20T10:30:22.284Z,33.80
2023-03-20T10:33:09.138Z,35.00
2023-03-20T10:35:52.906Z,36.10
2023-03-20T10:38:43.214Z,37.20
2023-03-20T10:41:23.667Z,38.60
2023-03-20T10:43:52.969Z,37.30
2023-03-20T10:46:24.423Z,37.60
2023-03-20T10:49:08.926Z,37.40
2023-03-20T10:52:00.158Z,36.70
2023-03-20T10:54:34.060Z,38.20
2023-03-20T10:57:04.441Z,39.20
2023-03-20T10:59:39.326Z,37.30
2023-03-20T11:02:13.761Z,37.90
2023-03-20T11:07:25.558Z,38.60
2023-03-20T11:10:04.706Z,39.20
2023-03-20T11:12:45.908Z,38.00
2023-03-20T11:15:19.685Z,38.20
2023-03-20T11:18:06.487Z,38.00
2023-03-20T11:20:37.535Z,38.70
2023-03-20T11:23:08.655Z,39.60
2023-03-20T11:25:45.111Z,37.80
2023-03-20T11:28:23.953Z,38.10
2023-03-20T11:33:44.532Z,40.40
2023-03-20T11:36:23.951Z,39.90
2023-03-20T11:38:52.484Z,41.30
2023-03-20T11:41:28.318Z,42.60
2023-03-20T11:46:25.376Z,42.20
2023-03-20T11:49:21.127Z,43.20
2023-03-20T11:54:21.845Z,41.60
2023-03-20T11:56:53.806Z,40.70
2023-03-20T11:59:21.223Z,41.90
2023-03-20T12:01:53.898Z,42.60
2023-03-20T12:04:34.714Z,42.20
2023-03-20T12:07:19.523Z,43.30
2023-03-20T12:09:56.855Z,43.50
2023-03-20T12:12:56.833Z,42.50
2023-03-20T12:15:37.361Z,43.10
2023-03-20T12:18:19.484Z,43.40
2023-03-20T12:21:05.726Z,44.30
2023-03-20T12:24:05.691Z,45.50
2023-03-20T12:26:36.825Z,45.00
2023-03-20T12:29:29.334Z,44.90
2023-03-20T12:32:02.400Z,45.00
2023-03-20T12:34:38.054Z,45.60
2023-03-20T12:37:09.431Z,44.60
2023-03-20T12:39:59.480Z,43.50
2023-03-20T12:42:35.593Z,43.70
2023-03-20T12:45:45.000Z,43.40
2023-03-20T12:48:41.487Z,43.20
2023-03-20T12:51:30.875Z,43.70
2023-03-20T12:54:22.713Z,44.70
2023-03-20T12:57:16.603Z,44.90
2023-03-20T12:59:54.685Z,45.70
2023-03-20T13:02:34.054Z,44.20
2023-03-20T13:05:13.088Z,45.40
2023-03-20T13:07:57.734Z,44.80
2023-03-20T13:10:37.198Z,45.80
2023-03-20T13:13:17.029Z,47.40
2023-03-20T13:16:04.452Z,48.30
2023-03-20T13:18:51.133Z,49.10
2023-03-20T13:21:31.967Z,50.70
2023-03-20T13:24:16.187Z,52.30
2023-03-20T13:26:59.145Z,53.00
2023-03-20T13:29:38.497Z,53.40
2023-03-20T13:32:36.300Z,53.90
2023-03-20T13:35:18.480Z,53.90
2023-03-20T13:37:55.906Z,53.10
2023-03-20T13:40:26.124Z,52.80
2023-03-20T13:43:22.196Z,53.90
2023-03-20T13:45:55.404Z,52.80
2023-03-20T13:48:28.356Z,52.80
2023-03-20T13:51:05.557Z,53.90
2023-03-20T13:54:01.314Z,53.90
2023-03-20T13:56:53.943Z,55.20
2023-03-20T13:59:35.888Z,55.20
2023-03-20T14:02:37.082Z,58.10
2023-03-20T14:05:14.982Z,61.00
2023-03-20T14:07:45.080Z,59.80
2023-03-20T14:10:24.221Z,60.50
2023-03-20T14:12:57.496Z,61.80
2023-03-20T14:15:27.977Z,62.30
2023-03-20T14:20:37.277Z,65.90
2023-03-20T14:23:20.715Z,65.60
2023-03-20T14:25:48.591Z,67.30
2023-03-20T14:30:49.100Z,69.00
2023-03-20T14:35:48.805Z,71.40
2023-03-20T14:38:25.954Z,74.40
2023-03-20T14:43:32.588Z,74.20
2023-03-20T14:46:08.850Z,75.70
2023-03-20T14:48:42.809Z,76.20
2023-03-20T14:51:31.490Z,77.50
2023-03-20T14:54:28.658Z,77.60
2023-03-20T14:56:56.555Z,80.10
2023-03-20T14:59:24.746Z,79.10
2023-03-20T15:01:57.633Z,80.00
2023-03-20T15:04:42.217Z,81.80
2023-03-20T15:09:41.180Z,83.80
2023-03-20T15:12:09.498Z,86.50
2023-03-20T15:15:03.595Z,86.30
2023-03-20T15:17:39.815Z,88.90
2023-03-20T15:20:29.386Z,89.50
2023-03-20T15:22:58.863Z,92.30
2023-03-20T15:25:45.303Z,92.50
2023-03-20T15:28:19.732Z,94.80
2023-03-20T15:30:49.388Z,95.90
2023-03-20T15:33:20.302Z,95.80
2023-03-20T15:35:47.400Z,97.70
2023-03-20T15:38:17.017Z,99.00
2023-03-20T15:43:24.619Z,99.90
2023-03-20T15:46:17.349Z,99.90
2023-03-20T15:48:48.741Z,99.90
2023-03-20T15:51:17.293Z,99.90
2023-03-20T15:53:47.575Z,99.90
2023-03-20T15:56:20.407Z,99.90
2023-03-20T15:58:50.557Z,99.90
2023-03-20T16:01:21.161Z,99.90
2023-03-20T16:03:49.138Z,99.90
2023-03-20T16:06:20.811Z,99.90
2023-03-20T16:08:58.418Z,99.90
2023-03-20T16:13:55.770Z,99.90
2023-03-20T16:16:24.698Z,99.90
2023-03-20T16:21:29.810Z,99.90
2023-03-20T16:23:59.257Z,99.90
2023-03-20T16:26:27.781Z,99.90
2023-03-20T16:28:59.953Z,99.90
2023-03-20T16:31:34.091Z,99.90
2023-03-20T16:34:12.946Z,99.90
2023-03-20T16:41:37.290Z,99.90
2023-03-20T16:44:17.122Z,99.90
2023-03-20T16:47:17.273Z,99.90
2023-03-20T16:49:56.184Z,99.90
2023-03-20T16:52:29.705Z,99.90
2023-03-20T16:54:58.236Z,99.90
2023-03-20T16:57:27.483Z,99.90
2023-03-20T17:00:08.544Z,99.90
2023-03-20T17:02:41.012Z,99.90
2023-03-20T17:05:13.359Z,99.90
2023-03-20T17:07:42.212Z,99.90
2023-03-20T17:10:20.534Z,99.90
2023-03-20T17:12:49.662Z,99.90
2023-03-20T17:15:18.380Z,99.90
2023-03-20T17:17:45.739Z,99.90
2023-03-20T17:20:21.988Z,99.90
2023-03-20T17:22:49.364Z,99.90
2023-03-20T17:25:16.643Z,99.90
2023-03-20T17:27:44.010Z,99.90
2023-03-20T17:30:18.516Z,99.90
2023-03-20T17:37:40.513Z,99.90
2023-03-20T17:40:11.311Z,99.90
2023-03-20T17:42:39.363Z,99.90
2023-03-20T17:52:29.406Z,99.90
2023-03-20T17:54:56.572Z,99.90
2023-03-20T18:02:18.820Z,99.90
2023-03-20T18:04:49.886Z,99.90
2023-03-20T18:07:18.208Z,99.90
2023-03-20T18:12:15.719Z,99.90
2023-03-20T18:17:13.183Z,99.90
2023-03-20T18:19:40.920Z,99.90
2023-03-20T18:24:36.607Z,99.90
2023-03-20T18:27:03.763Z,99.90
2023-03-20T18:39:24.979Z,99.90
2023-03-20T18:41:52.422Z,99.90
2023-03-20T18:44:19.396Z,99.90
2023-03-20T18:49:17.657Z,99.90
2023-03-20T18:51:45.545Z,99.90
2023-03-20T18:56:40.778Z,99.90
2023-03-20T19:01:36.056Z,99.90
2023-03-20T19:04:03.286Z,99.90
2023-03-20T19:06:32.274Z,99.90
2023-03-20T19:09:02.897Z,99.90
2023-03-20T19:11:29.772Z,99.90
2023-03-20T19:13:56.764Z,99.90
2023-03-20T19:16:34.699Z,99.90
2023-03-20T19:19:03.467Z,99.90
2023-03-20T19:21:32.256Z,99.90
2023-03-20T19:24:02.087Z,99.90
2023-03-20T19:26:31.046Z,99.90
2023-03-20T19:29:00.981Z,99.90
2023-03-20T19:36:26.799Z,99.90
2023-03-20T19:38:54.657Z,99.90
2023-03-20T19:41:22.343Z,99.90
2023-03-20T19:51:34.176Z,99.90
2023-03-20T20:01:25.350Z,99.90
2023-03-20T20:03:57.904Z,99.90
2023-03-20T20:06:31.064Z,99.90
2023-03-20T20:16:37.543Z,99.90
2023-03-20T20:19:04.688Z,99.90
2023-03-20T20:27:07.082Z,99.90
2023-03-20T20:29:38.162Z,99.90
2023-03-20T20:32:05.538Z,99.90
2023-03-20T20:38:08.963Z,99.90
2023-03-20T20:40:11.282Z,99.90
2023-03-20T20:45:08.417Z,99.90
2023-03-20T20:50:04.210Z,99.90
2023-03-20T20:52:35.779Z,99.90
2023-03-20T20:55:19.339Z,99.90
2023-03-20T20:57:51.666Z,99.90
2023-03-20T21:05:15.612Z,99.90
2023-03-20T21:07:44.572Z,99.90
2023-03-20T21:10:13.271Z,99.90
2023-03-20T21:15:25.880Z,99.90
2023-03-20T21:18:00.581Z,99.90
2023-03-20T21:20:29.602Z,99.90
2023-03-20T21:40:43.887Z,99.90
2023-03-20T21:43:11.233Z,99.90
2023-03-20T21:46:21.073Z,99.90
2023-03-20T22:25:18.476Z,99.90
2023-03-20T22:31:03.425Z,99.90
2023-03-20T22:33:46.983Z,99.90
2023-03-20T22:36:28.043Z,99.90
2023-03-20T22:42:06.869Z,99.90
2023-03-20T22:49:23.120Z,99.90
2023-03-20T22:52:11.151Z,99.90
2023-03-20T22:57:06.191Z,99.90
2023-03-20T22:59:33.089Z,99.90
2023-03-20T23:04:29.889Z,99.90
2023-03-20T23:09:24.651Z,99.90
2023-03-20T23:11:51.465Z,99.90
2023-03-20T23:14:21.731Z,99.90
2023-03-20T23:19:16.974Z,99.90
2023-03-20T23:26:38.861Z,99.90
2023-03-20T23:29:05.857Z,99.90
2023-03-20T23:31:32.832Z,99.90
2023-03-20T23:33:59.709Z,99.90
2023-03-20T23:36:42.709Z,99.90
2023-03-20T23:39:13.009Z,99.90
2023-03-20T23:44:28.388Z,99.90
2023-03-20T23:49:23.006Z,99.90
2023-03-20T23:54:17.212Z,99.90
2023-03-20T23:56:44.069Z,99.90
